Time;durP1;ratioP1;P1;durP2;ratioP2;P2;SDS_P1;SDS_P2;PMS_P1;PMS_P2;Temp;Humidity;BMP_temperature;BMP_pressure;BME280_temperature;BME280_humidity;BME280_pressure;Samples;Min_cycle;Max_cycle;Signal;HPM_P1;HPM_P2
2022/12/28 00:00:38;;;;;;;8.20;3.93;;;-0.70;99.90;;;;;;4135629;28;20504;-62
2022/12/28 00:02:38;;;;;;;8.90;4.50;;;-0.60;99.90;;;;;;4141728;28;20517;-62
2022/12/28 00:04:39;;;;;;;9.47;5.20;;;-0.60;99.90;;;;;;4135359;28;20216;-62
2022/12/28 00:06:40;;;;;;;8.07;4.40;;;-0.70;99.90;;;;;;4140725;28;20497;-62
2022/12/28 00:08:41;;;;;;;7.73;3.67;;;-0.50;99.90;;;;;;4135271;28;20702;-63
2022/12/28 00:10:41;;;;;;;9.83;4.63;;;-0.40;99.90;;;;;;4141131;28;20210;-64
2022/12/28 00:12:42;;;;;;;11.80;5.50;;;-0.30;99.90;;;;;;4135523;28;20209;-62
2022/12/28 00:14:43;;;;;;;13.87;4.83;;;-0.30;99.90;;;;;;4128909;28;20193;-63
2022/12/28 00:16:44;;;;;;;7.20;4.50;;;-0.20;99.90;;;;;;4135336;28;20186;-63
2022/12/28 00:18:44;;;;;;;8.83;4.53;;;-0.20;99.90;;;;;;4140830;28;20210;-64
2022/12/28 00:20:56;;;;;;;6.13;4.07;;;0.00;99.90;;;;;;4136208;28;20490;-63
2022/12/28 00:22:57;;;;;;;6.13;3.77;;;0.00;99.90;;;;;;4129136;28;20193;-62
2022/12/28 00:24:57;;;;;;;6.93;3.67;;;0.00;99.90;;;;;;4130021;28;20892;-63
2022/12/28 00:26:58;;;;;;;7.73;4.33;;;0.00;99.90;;;;;;4129495;28;20194;-62
2022/12/28 00:29:00;;;;;;;7.73;4.37;;;-0.10;99.90;;;;;;4129799;28;20620;-63
2022/12/28 00:31:00;;;;;;;10.93;4.50;;;-0.10;99.90;;;;;;4129134;28;20248;-63
2022/12/28 00:33:01;;;;;;;7.93;4.30;;;-0.20;99.90;;;;;;4129160;28;20425;-65
2022/12/28 00:35:02;;;;;;;6.97;4.43;;;-0.20;99.90;;;;;;4130518;28;20182;-64
2022/12/28 00:37:02;;;;;;;9.03;5.10;;;-0.20;99.90;;;;;;4129627;28;20234;-64
2022/12/28 00:39:04;;;;;;;6.03;3.90;;;-0.30;99.90;;;;;;4128258;28;20237;-63
2022/12/28 00:41:06;;;;;;;9.70;4.30;;;-0.20;99.90;;;;;;4130386;28;20193;-64
2022/12/28 00:43:06;;;;;;;8.70;4.10;;;-0.20;99.90;;;;;;4130299;28;20429;-64
2022/12/28 00:45:08;;;;;;;9.67;4.40;;;-0.30;99.90;;;;;;4130189;28;20899;-64
2022/12/28 00:47:08;;;;;;;8.23;4.60;;;-0.30;99.90;;;;;;4129300;28;20193;-64
2022/12/28 00:49:09;;;;;;;7.97;4.50;;;-0.30;99.90;;;;;;4128912;28;20484;-63
2022/12/28 00:51:17;;;;;;;9.53;4.80;;;-0.30;99.90;;;;;;4129862;28;20214;-63
2022/12/28 00:53:18;;;;;;;7.17;4.03;;;-0.30;99.90;;;;;;4128485;28;20185;-63
2022/12/28 00:55:19;;;;;;;6.40;4.00;;;-0.20;99.90;;;;;;4130332;28;20479;-65
2022/12/28 00:57:20;;;;;;;6.50;3.63;;;-0.10;99.90;;;;;;4129213;28;20807;-64
2022/12/28 00:59:20;;;;;;;4.23;3.50;;;0.00;99.90;;;;;;4112558;28;20203;-63
2022/12/28 01:01:22;;;;;;;6.37;3.83;;;0.00;99.90;;;;;;4129934;28;20193;-65
2022/12/28 01:03:23;;;;;;;5.83;3.63;;;0.00;99.90;;;;;;4130734;28;20182;-63
2022/12/28 01:05:24;;;;;;;5.23;2.60;;;0.20;99.90;;;;;;4129770;28;20436;-63
2022/12/28 01:07:25;;;;;;;6.07;3.60;;;0.10;99.90;;;;;;4129472;28;20350;-64
2022/12/28 01:09:25;;;;;;;7.10;4.07;;;0.20;99.90;;;;;;4129692;28;20493;-63
2022/12/28 01:11:29;;;;;;;5.07;2.90;;;0.20;99.90;;;;;;4129605;28;20210;-63
2022/12/28 01:13:29;;;;;;;5.87;3.13;;;0.20;99.90;;;;;;4128580;28;20743;-62
2022/12/28 01:15:30;;;;;;;4.33;2.40;;;0.30;99.90;;;;;;4129766;28;20433;-63
2022/12/28 01:17:31;;;;;;;3.53;2.00;;;0.20;99.90;;;;;;4129049;28;20189;-67
2022/12/28 01:19:32;;;;;;;7.10;3.07;;;0.30;99.90;;;;;;4129507;28;20213;-63
2022/12/28 01:21:34;;;;;;;6.37;3.20;;;0.30;99.90;;;;;;4128558;28;20249;-63
2022/12/28 01:23:35;;;;;;;4.77;3.07;;;0.30;99.90;;;;;;4130055;28;20214;-63
2022/12/28 01:25:35;;;;;;;6.10;4.07;;;0.40;99.90;;;;;;4137287;28;20921;-63
2022/12/28 01:27:36;;;;;;;5.53;3.47;;;0.40;99.90;;;;;;4137890;28;20599;-63
2022/12/28 01:29:37;;;;;;;5.40;3.20;;;0.40;99.90;;;;;;4129225;28;20209;-63
2022/12/28 01:31:38;;;;;;;7.20;3.40;;;0.40;99.90;;;;;;4130155;28;20210;-63
2022/12/28 01:33:39;;;;;;;5.70;3.40;;;0.30;99.90;;;;;;4130221;28;20240;-62
2022/12/28 01:35:40;;;;;;;5.53;3.03;;;0.30;99.90;;;;;;4129999;28;20175;-63
2022/12/28 01:37:41;;;;;;;5.70;3.23;;;0.50;99.90;;;;;;4129647;28;20424;-63
2022/12/28 01:39:41;;;;;;;4.13;2.60;;;0.50;99.90;;;;;;4129890;28;20194;-63
2022/12/28 01:41:42;;;;;;;4.63;3.07;;;0.60;99.90;;;;;;4129899;28;20186;-63
2022/12/28 01:44:06;;;;;;;4.43;2.70;;;0.70;99.90;;;;;;4130071;28;20596;-63
2022/12/28 01:46:13;;;;;;;6.47;3.13;;;0.90;99.90;;;;;;4099131;28;20496;-63
2022/12/28 01:48:22;;;;;;;4.23;2.57;;;0.90;99.90;;;;;;4122940;28;20418;-63
2022/12/28 01:50:27;;;;;;;5.60;2.30;;;0.90;99.90;;;;;;4111680;28;20456;-63
2022/12/28 01:52:37;;;;;;;3.73;2.30;;;1.00;99.90;;;;;;4096930;29;20434;-63
2022/12/28 01:54:55;;;;;;;4.03;2.47;;;1.00;99.90;;;;;;4096647;29;20420;-64
2022/12/28 01:56:57;;;;;;;4.10;2.80;;;1.00;99.90;;;;;;4113043;28;20873;-63
2022/12/28 01:58:58;;;;;;;7.50;2.43;;;1.00;99.90;;;;;;4113529;28;20486;-63
2022/12/28 02:00:58;;;;;;;3.70;2.60;;;1.00;99.90;;;;;;4113679;28;21097;-63
2022/12/28 02:03:13;;;;;;;3.80;2.57;;;0.80;99.90;;;;;;4113648;28;20179;-63
2022/12/28 02:05:15;;;;;;;3.73;2.13;;;0.80;99.90;;;;;;4113562;28;20182;-63
2022/12/28 02:07:30;;;;;;;5.13;2.60;;;0.90;99.90;;;;;;4095428;29;20467;-63
2022/12/28 02:09:42;;;;;;;4.73;2.43;;;1.00;99.90;;;;;;4096186;29;20447;-64
2022/12/28 02:11:43;;;;;;;3.93;2.47;;;1.20;99.90;;;;;;4113414;28;20485;-64
2022/12/28 02:13:47;;;;;;;7.17;2.53;;;1.20;99.90;;;;;;4115828;28;20924;-63
2022/12/28 02:15:48;;;;;;;4.57;1.83;;;1.20;99.90;;;;;;4099227;29;20183;-68
2022/12/28 02:17:49;;;;;;;2.50;1.57;;;1.20;99.90;;;;;;4115966;28;20427;-63
2022/12/28 02:19:50;;;;;;;4.27;1.90;;;1.10;99.90;;;;;;4116509;28;20945;-63
2022/12/28 02:22:30;;;;;;;3.93;2.33;;;1.20;99.90;;;;;;4100494;28;20534;-64
2022/12/28 02:25:26;;;;;;;2.77;1.97;;;1.30;99.90;;;;;;4132461;28;20805;-63
2022/12/28 02:28:07;;;;;;;3.43;2.20;;;1.30;99.90;;;;;;4131749;28;20436;-63
2022/12/28 02:30:12;;;;;;;3.30;2.13;;;1.30;99.90;;;;;;4115156;28;20430;-63
2022/12/28 02:32:58;;;;;;;2.97;1.93;;;1.30;99.90;;;;;;4114850;28;20528;-63
2022/12/28 02:35:22;;;;;;;1.67;1.43;;;1.10;99.90;;;;;;4115414;28;20414;-63
2022/12/28 02:37:51;;;;;;;2.37;1.33;;;1.00;99.90;;;;;;4131443;28;20896;-63
2022/12/28 02:39:57;;;;;;;2.27;1.47;;;0.80;99.90;;;;;;4099108;29;20459;-63
2022/12/28 02:42:00;;;;;;;2.23;1.40;;;0.80;99.90;;;;;;4114888;28;20437;-63
2022/12/28 02:44:01;;;;;;;3.80;1.70;;;0.90;99.90;;;;;;4115045;28;20953;-63
2022/12/28 02:51:39;;;;;;;1.83;1.30;;;0.90;99.90;;;;;;4132105;28;20457;-64
2022/12/28 02:53:47;;;;;;;3.60;1.80;;;0.90;99.90;;;;;;4088767;28;20884;-64
2022/12/28 02:56:06;;;;;;;3.80;1.20;;;0.90;99.90;;;;;;4132007;28;20401;-64
2022/12/28 02:58:32;;;;;;;1.83;1.40;;;0.80;99.90;;;;;;4131577;28;20428;-63
2022/12/28 03:01:28;;;;;;;2.50;1.40;;;0.70;99.90;;;;;;4132123;28;20771;-64
2022/12/28 03:04:11;;;;;;;1.43;1.23;;;0.70;99.90;;;;;;4132135;28;20409;-64
2022/12/28 03:10:14;;;;;;;2.03;1.20;;;0.30;99.90;;;;;;4107715;28;20453;-64
2022/12/28 03:13:03;;;;;;;1.40;1.13;;;0.40;99.90;;;;;;4114235;28;20869;-65
2022/12/28 03:15:07;;;;;;;1.37;1.03;;;0.40;99.90;;;;;;4034667;29;20446;-62
2022/12/28 03:31:33;;;;;;;2.57;1.70;;;0.40;99.90;;;;;;4130683;28;20480;-62
2022/12/28 03:33:47;;;;;;;1.10;1.00;;;0.40;99.90;;;;;;4130588;28;20453;-63
2022/12/28 03:36:10;;;;;;;5.03;1.47;;;0.50;99.90;;;;;;4130505;28;20417;-63
2022/12/28 03:38:26;;;;;;;1.80;1.10;;;0.40;99.90;;;;;;4130917;28;20438;-65
2022/12/28 03:40:46;;;;;;;1.20;1.10;;;0.40;99.90;;;;;;4114839;28;20422;-63
2022/12/28 03:45:19;;;;;;;2.83;1.07;;;0.40;99.90;;;;;;4130431;28;20404;-63
2022/12/28 03:47:23;;;;;;;2.37;1.13;;;0.40;99.90;;;;;;4113575;28;20414;-63
2022/12/28 03:49:24;;;;;;;2.63;1.40;;;0.30;99.90;;;;;;4113724;28;21233;-63
2022/12/28 03:51:27;;;;;;;4.40;1.67;;;0.30;99.90;;;;;;4129344;28;20533;-63
2022/12/28 03:53:37;;;;;;;1.60;1.03;;;0.40;99.90;;;;;;4099711;28;20568;-63
2022/12/28 03:55:39;;;;;;;1.97;1.37;;;0.40;99.90;;;;;;4097806;29;20439;-63
2022/12/28 03:57:40;;;;;;;1.97;1.37;;;0.50;99.90;;;;;;4097193;29;20426;-64
2022/12/28 03:59:41;;;;;;;1.40;1.10;;;0.60;99.90;;;;;;4098114;29;20493;-63
2022/12/28 04:01:42;;;;;;;1.53;1.37;;;0.70;99.90;;;;;;4114827;28;20521;-63
2022/12/28 04:03:43;;;;;;;2.23;1.17;;;0.80;99.90;;;;;;4114912;28;20183;-63
2022/12/28 04:05:43;;;;;;;1.20;1.10;;;0.90;99.90;;;;;;4114962;28;20194;-62
2022/12/28 04:07:44;;;;;;;1.90;1.47;;;0.80;99.90;;;;;;4114216;28;20613;-62
2022/12/28 04:09:45;;;;;;;1.90;1.30;;;0.80;99.90;;;;;;4115284;28;20207;-62
2022/12/28 04:11:45;;;;;;;1.17;0.97;;;0.70;99.90;;;;;;4114795;28;20246;-63
2022/12/28 04:13:46;;;;;;;2.03;1.13;;;0.70;99.90;;;;;;4098004;29;20179;-63
2022/12/28 04:16:03;;;;;;;4.20;1.10;;;0.80;99.90;;;;;;4114819;28;20179;-63
2022/12/28 04:18:04;;;;;;;1.80;1.27;;;0.80;99.90;;;;;;4130462;28;20244;-63
2022/12/28 04:20:05;;;;;;;1.70;1.20;;;1.00;99.90;;;;;;4113679;28;20438;-63
2022/12/28 04:22:06;;;;;;;1.57;1.07;;;1.00;99.90;;;;;;4113618;28;20191;-63
2022/12/28 04:24:06;;;;;;;1.70;1.10;;;0.90;99.90;;;;;;4130825;28;20492;-62
2022/12/28 04:26:10;;;;;;;2.87;1.50;;;1.00;99.90;;;;;;4113413;28;20274;-63
2022/12/28 04:28:11;;;;;;;3.30;1.30;;;1.00;99.90;;;;;;4112646;28;20226;-62
2022/12/28 04:30:12;;;;;;;2.10;1.00;;;0.90;99.90;;;;;;4130597;28;20438;-62
2022/12/28 04:32:12;;;;;;;1.97;1.63;;;1.20;99.90;;;;;;4130543;28;20292;-62
2022/12/28 04:34:13;;;;;;;2.37;1.30;;;1.30;99.90;;;;;;4130607;28;20210;-62
2022/12/28 04:36:15;;;;;;;3.80;1.10;;;1.30;99.90;;;;;;4130055;28;20187;-63
2022/12/28 04:38:17;;;;;;;1.50;1.33;;;1.40;99.90;;;;;;4129882;28;20238;-63
2022/12/28 04:40:17;;;;;;;7.50;2.43;;;1.50;99.90;;;;;;4130464;28;20534;-63
2022/12/28 04:42:18;;;;;;;2.17;1.43;;;1.50;99.90;;;;;;4130439;28;20465;-63
2022/12/28 04:44:19;;;;;;;1.97;1.20;;;1.60;99.90;;;;;;4130470;28;20195;-63
2022/12/28 04:46:19;;;;;;;1.83;1.20;;;1.70;99.90;;;;;;4130318;28;20576;-63
2022/12/28 04:48:20;;;;;;;1.87;1.20;;;1.80;99.90;;;;;;4130062;28;20222;-63
2022/12/28 04:50:20;;;;;;;1.27;0.90;;;2.00;99.90;;;;;;4130305;28;20194;-63
2022/12/28 04:52:21;;;;;;;3.37;1.30;;;2.20;99.90;;;;;;4112587;28;20317;-63
2022/12/28 04:54:22;;;;;;;1.63;1.07;;;2.30;99.90;;;;;;4130062;28;20183;-63
2022/12/28 04:56:25;;;;;;;1.03;0.90;;;2.30;99.90;;;;;;4129625;28;20188;-63
2022/12/28 04:58:25;;;;;;;1.60;0.90;;;2.50;99.90;;;;;;4129934;28;20215;-63
2022/12/28 05:00:26;;;;;;;1.67;1.07;;;2.40;99.90;;;;;;4130087;28;20443;-63
2022/12/28 05:02:26;;;;;;;1.17;1.00;;;2.40;99.90;;;;;;4130137;28;20218;-63
2022/12/28 05:04:27;;;;;;;1.73;1.23;;;2.60;99.90;;;;;;4129846;28;20190;-63
2022/12/28 05:06:28;;;;;;;3.43;1.57;;;2.60;99.90;;;;;;4129105;28;20192;-63
2022/12/28 05:08:31;;;;;;;7.60;3.03;;;2.70;99.90;;;;;;4129529;28;20746;-63
2022/12/28 05:10:31;;;;;;;2.93;2.40;;;2.80;99.90;;;;;;4112488;28;20192;-63
2022/12/28 05:12:32;;;;;;;6.60;2.40;;;2.40;99.90;;;;;;4129606;28;20500;-63
2022/12/28 05:14:33;;;;;;;4.23;2.03;;;2.50;99.90;;;;;;4112499;28;20181;-64
2022/12/28 05:16:33;;;;;;;3.23;1.80;;;2.60;99.90;;;;;;4128908;28;20179;-64
2022/12/28 05:18:34;;;;;;;2.47;1.30;;;2.70;99.90;;;;;;4129795;28;20195;-63
2022/12/28 05:20:35;;;;;;;1.20;1.00;;;2.70;99.90;;;;;;4119897;28;20227;-64
2022/12/28 05:22:36;;;;;;;2.07;1.20;;;2.90;99.90;;;;;;4121503;28;20530;-64
2022/12/28 05:24:39;;;;;;;4.03;2.20;;;3.00;99.90;;;;;;4134621;28;20211;-63
2022/12/28 05:26:40;;;;;;;5.30;2.50;;;2.90;99.90;;;;;;4142116;28;20259;-63
2022/12/28 05:28:41;;;;;;;3.93;1.27;;;2.80;99.90;;;;;;4130435;28;21021;-64
2022/12/28 05:30:41;;;;;;;1.97;0.90;;;3.00;99.90;;;;;;4130091;28;20208;-64
2022/12/28 05:32:42;;;;;;;1.27;0.90;;;3.10;99.90;;;;;;4130060;28;20189;-64
2022/12/28 05:34:43;;;;;;;3.07;1.30;;;3.20;99.90;;;;;;4112335;28;20213;-64
2022/12/28 05:36:43;;;;;;;4.37;1.20;;;3.40;99.90;;;;;;4111351;28;20186;-64
2022/12/28 05:38:45;;;;;;;0.80;0.70;;;3.30;99.90;;;;;;4129353;28;20926;-64
2022/12/28 05:40:45;;;;;;;4.37;1.20;;;3.20;99.90;;;;;;4112019;28;20205;-64
2022/12/28 05:42:46;;;;;;;4.50;1.13;;;3.30;99.90;;;;;;4129354;28;20425;-64
2022/12/28 05:44:47;;;;;;;3.10;1.10;;;3.40;99.90;;;;;;4129121;28;20236;-64
2022/12/28 05:46:47;;;;;;;1.47;0.80;;;3.50;99.90;;;;;;4128324;28;20193;-64
2022/12/28 05:48:48;;;;;;;1.03;0.80;;;3.40;99.90;;;;;;4128954;28;20224;-64
2022/12/28 05:50:49;;;;;;;3.80;1.17;;;3.50;99.90;;;;;;4125776;28;20214;-64
2022/12/28 05:52:49;;;;;;;1.17;0.87;;;3.70;99.90;;;;;;4113021;28;20186;-64
2022/12/28 05:54:50;;;;;;;1.63;0.70;;;3.60;99.90;;;;;;4113160;28;20175;-64
2022/12/28 05:56:51;;;;;;;1.80;1.00;;;3.70;99.90;;;;;;4112579;28;20196;-64
2022/12/28 05:59:12;;;;;;;3.10;1.03;;;3.70;99.90;;;;;;4113166;28;20210;-64
2022/12/28 06:01:17;;;;;;;1.03;0.87;;;3.80;99.90;;;;;;4113082;28;20174;-64
2022/12/28 06:03:17;;;;;;;2.43;1.00;;;3.90;99.90;;;;;;4096214;29;20440;-64
2022/12/28 06:05:18;;;;;;;1.53;0.87;;;3.90;99.90;;;;;;4113216;28;20437;-64
2022/12/28 06:07:19;;;;;;;3.93;1.03;;;3.90;99.90;;;;;;4095275;29;20187;-64
2022/12/28 06:09:20;;;;;;;1.07;0.77;;;4.00;99.90;;;;;;4113253;28;20644;-64
2022/12/28 06:11:26;;;;;;;0.67;0.67;;;3.90;99.90;;;;;;4113169;28;20508;-64
2022/12/28 06:13:28;;;;;;;0.50;0.50;;;4.00;99.90;;;;;;4096327;29;20178;-65
2022/12/28 06:15:28;;;;;;;1.63;1.00;;;3.90;99.90;;;;;;4113497;28;20895;-64
2022/12/28 06:17:29;;;;;;;1.33;0.80;;;4.10;99.90;;;;;;4112904;28;20425;-64
2022/12/28 06:19:30;;;;;;;0.80;0.80;;;3.90;99.90;;;;;;4113638;28;20205;-64
2022/12/28 06:21:33;;;;;;;1.10;1.00;;;3.90;99.90;;;;;;4113593;28;20178;-64
2022/12/28 06:23:35;;;;;;;3.93;1.20;;;4.00;99.90;;;;;;4111803;28;20198;-63
2022/12/28 06:25:37;;;;;;;3.30;0.83;;;4.00;99.90;;;;;;4129248;28;20437;-63
2022/12/28 06:27:37;;;;;;;0.67;0.50;;;4.00;99.90;;;;;;4128766;28;20443;-64
2022/12/28 06:29:38;;;;;;;4.60;0.80;;;3.90;99.90;;;;;;4129151;28;20448;-64
2022/12/28 06:31:45;;;;;;;0.60;0.60;;;3.90;99.90;;;;;;4129905;28;20227;-64
2022/12/28 06:33:48;;;;;;;0.77;0.70;;;3.90;99.90;;;;;;4128950;28;20654;-64
2022/12/28 06:35:48;;;;;;;1.13;0.70;;;3.80;99.90;;;;;;4129126;28;20492;-64
2022/12/28 06:37:49;;;;;;;0.70;0.70;;;3.90;99.90;;;;;;4128697;28;20464;-64
2022/12/28 06:39:50;;;;;;;2.00;0.60;;;3.90;99.90;;;;;;4129263;28;20210;-63
2022/12/28 06:41:50;;;;;;;1.37;0.80;;;3.90;99.90;;;;;;4128940;28;20186;-63
2022/12/28 06:43:51;;;;;;;2.87;1.43;;;3.80;99.90;;;;;;4128848;28;20194;-63
2022/12/28 06:45:56;;;;;;;1.57;1.00;;;3.80;99.90;;;;;;4129355;28;20541;-63
2022/12/28 06:47:56;;;;;;;1.63;0.70;;;3.90;99.90;;;;;;4128828;28;20440;-63
2022/12/28 06:49:57;;;;;;;0.77;0.73;;;3.90;99.90;;;;;;4129148;28;21167;-63
2022/12/28 06:51:58;;;;;;;1.60;0.70;;;3.90;99.90;;;;;;4128838;28;20715;-63
2022/12/28 06:53:58;;;;;;;0.67;0.60;;;3.90;99.90;;;;;;4128967;28;20665;-63
2022/12/28 06:56:06;;;;;;;1.27;0.60;;;3.90;99.90;;;;;;4111551;28;20780;-64
2022/12/28 06:58:06;;;;;;;0.90;0.57;;;3.90;99.90;;;;;;4128445;28;20185;-64
2022/12/28 07:00:08;;;;;;;1.00;0.63;;;3.90;99.90;;;;;;4131544;28;20449;-64
2022/12/28 07:02:09;;;;;;;2.20;0.70;;;3.90;99.90;;;;;;4131552;28;20221;-64
2022/12/28 07:04:10;;;;;;;1.53;0.60;;;4.00;99.90;;;;;;4131728;28;20444;-64
2022/12/28 07:06:14;;;;;;;0.77;0.77;;;4.00;99.90;;;;;;4114338;28;20187;-64
2022/12/28 07:08:15;;;;;;;0.70;0.60;;;4.00;99.90;;;;;;4113249;28;20537;-64
2022/12/28 07:10:16;;;;;;;0.93;0.70;;;4.00;99.90;;;;;;4131225;28;20525;-64
2022/12/28 07:12:16;;;;;;;1.33;1.23;;;4.00;99.90;;;;;;4131309;28;20489;-64
2022/12/28 07:14:18;;;;;;;1.93;0.73;;;4.10;99.90;;;;;;4131614;28;20225;-65
2022/12/28 07:16:20;;;;;;;4.00;1.07;;;4.10;99.90;;;;;;4131487;28;20183;-64
2022/12/28 07:18:21;;;;;;;1.70;0.70;;;4.20;99.90;;;;;;4113909;28;20441;-65
2022/12/28 07:20:22;;;;;;;1.73;0.80;;;4.10;99.90;;;;;;4131382;28;20436;-65
2022/12/28 07:22:22;;;;;;;2.80;0.90;;;4.10;99.90;;;;;;4131466;28;20185;-65
2022/12/28 07:24:23;;;;;;;4.60;0.83;;;4.20;99.90;;;;;;4134680;28;20178;-65
2022/12/28 07:26:30;;;;;;;0.73;0.73;;;4.20;99.90;;;;;;4143174;28;20189;-62
2022/12/28 07:28:31;;;;;;;4.83;2.00;;;4.20;99.90;;;;;;4116430;28;20750;-64
2022/12/28 07:30:31;;;;;;;1.60;1.13;;;4.20;99.90;;;;;;4114333;28;20533;-64
2022/12/28 07:32:36;;;;;;;0.93;0.90;;;4.30;99.90;;;;;;4131821;28;20178;-65
2022/12/28 07:34:37;;;;;;;1.93;0.50;;;4.30;99.90;;;;;;4114318;28;20656;-65
2022/12/28 07:36:37;;;;;;;3.13;1.27;;;4.40;99.90;;;;;;4130734;28;20421;-63
2022/12/28 07:38:38;;;;;;;0.83;0.80;;;4.30;99.90;;;;;;4131472;28;20202;-63
2022/12/28 07:40:39;;;;;;;0.70;0.70;;;4.40;99.90;;;;;;4131292;28;20222;-63
2022/12/28 07:42:40;;;;;;;0.53;0.53;;;4.30;99.90;;;;;;4131307;28;20235;-63
2022/12/28 07:44:40;;;;;;;1.90;0.97;;;4.40;99.90;;;;;;4131120;28;20178;-63
2022/12/28 07:46:41;;;;;;;1.23;0.67;;;4.40;99.90;;;;;;4130516;28;20213;-63
2022/12/28 07:48:43;;;;;;;1.43;0.60;;;4.40;99.90;;;;;;4113606;28;20207;-63
2022/12/28 07:50:44;;;;;;;1.63;0.90;;;4.40;99.90;;;;;;4130727;28;20205;-65
2022/12/28 07:52:45;;;;;;;1.93;1.00;;;4.50;99.90;;;;;;4131019;28;20426;-64
2022/12/28 07:54:45;;;;;;;2.43;0.80;;;4.50;99.90;;;;;;4131060;28;20253;-64
2022/12/28 07:56:46;;;;;;;1.03;0.90;;;4.50;99.90;;;;;;4125946;28;20178;-64
2022/12/28 07:58:49;;;;;;;0.70;0.70;;;4.50;99.90;;;;;;4097447;29;20227;-64
2022/12/28 08:00:50;;;;;;;1.67;0.77;;;4.40;99.90;;;;;;4097747;29;20777;-64
2022/12/28 08:02:55;;;;;;;1.87;1.20;;;4.50;99.90;;;;;;4114684;28;20517;-64
2022/12/28 08:04:56;;;;;;;4.53;1.83;;;4.50;99.90;;;;;;4114915;28;20171;-64
2022/12/28 08:06:57;;;;;;;2.47;1.80;;;4.50;99.90;;;;;;4114109;28;20430;-64
2022/12/28 08:08:59;;;;;;;3.23;1.80;;;4.60;99.90;;;;;;4114683;28;20276;-65
2022/12/28 08:11:06;;;;;;;3.03;0.90;;;4.60;99.90;;;;;;4096634;28;20246;-64
2022/12/28 08:13:07;;;;;;;5.63;1.93;;;4.60;99.90;;;;;;4114548;28;20465;-64
2022/12/28 08:15:08;;;;;;;4.83;1.90;;;4.70;99.90;;;;;;4114754;28;20801;-64
2022/12/28 08:17:09;;;;;;;5.83;3.40;;;4.80;99.90;;;;;;4114276;28;20183;-65
2022/12/28 08:19:11;;;;;;;6.13;3.70;;;4.90;99.90;;;;;;4114326;28;20500;-64
2022/12/28 08:21:20;;;;;;;6.03;2.23;;;4.90;99.90;;;;;;4103028;28;20194;-64
2022/12/28 08:23:21;;;;;;;3.30;2.00;;;5.00;99.90;;;;;;4130508;28;20507;-64
2022/12/28 08:25:21;;;;;;;8.97;2.40;;;5.00;99.90;;;;;;4130491;28;20819;-65
2022/12/28 08:27:22;;;;;;;1.97;1.47;;;5.10;99.70;;;;;;4129627;28;20209;-65
2022/12/28 08:29:23;;;;;;;3.63;1.93;;;5.20;98.90;;;;;;4130227;28;20198;-65
2022/12/28 08:31:30;;;;;;;4.30;1.30;;;5.10;99.50;;;;;;4130153;28;20214;-65
2022/12/28 08:33:31;;;;;;;2.93;1.50;;;5.10;99.40;;;;;;4130187;28;20199;-65
2022/12/28 08:35:31;;;;;;;7.33;3.07;;;5.20;99.50;;;;;;4130269;28;20427;-65
2022/12/28 08:37:32;;;;;;;3.07;2.17;;;5.20;99.40;;;;;;4129806;28;20182;-64
2022/12/28 08:39:33;;;;;;;2.83;1.20;;;5.10;99.20;;;;;;4130018;28;20768;-65
2022/12/28 08:41:33;;;;;;;1.77;1.20;;;5.20;99.40;;;;;;4130589;28;20179;-65
2022/12/28 08:43:34;;;;;;;4.77;1.73;;;5.20;99.30;;;;;;4114958;28;20542;-64
2022/12/28 08:45:35;;;;;;;2.13;0.90;;;5.30;99.10;;;;;;4133250;28;20725;-64
2022/12/28 08:47:35;;;;;;;3.27;1.10;;;5.50;97.90;;;;;;4129607;28;20182;-64
2022/12/28 08:49:36;;;;;;;1.70;1.10;;;5.50;98.20;;;;;;4130129;28;20194;-64
2022/12/28 08:51:40;;;;;;;4.40;1.50;;;5.50;97.30;;;;;;4130451;28;20249;-64
2022/12/28 08:53:41;;;;;;;3.47;1.40;;;5.50;97.80;;;;;;4130166;28;20680;-65
2022/12/28 08:55:42;;;;;;;4.30;1.10;;;5.70;97.10;;;;;;4112929;28;20576;-64
2022/12/28 08:57:42;;;;;;;1.10;1.00;;;5.80;97.30;;;;;;4129536;28;20458;-64
2022/12/28 08:59:43;;;;;;;4.97;1.43;;;5.90;96.20;;;;;;4113123;28;20678;-64
2022/12/28 09:01:45;;;;;;;1.90;1.13;;;5.80;96.60;;;;;;4130797;28;20663;-64
2022/12/28 09:03:49;;;;;;;1.37;1.07;;;5.70;97.10;;;;;;4129810;28;20645;-64
2022/12/28 09:05:50;;;;;;;0.80;0.80;;;5.60;96.80;;;;;;4129869;28;20993;-65
2022/12/28 09:07:51;;;;;;;2.50;1.40;;;5.60;97.10;;;;;;4129170;28;20454;-64
2022/12/28 09:09:51;;;;;;;2.77;1.67;;;5.60;97.50;;;;;;4130157;28;20209;-64
2022/12/28 09:11:52;;;;;;;1.63;1.20;;;5.80;97.20;;;;;;4129841;28;20845;-64
2022/12/28 09:13:53;;;;;;;2.53;1.20;;;5.90;96.90;;;;;;4129864;28;20597;-65
2022/12/28 09:15:59;;;;;;;5.53;2.70;;;6.10;96.50;;;;;;4112077;28;20206;-65
2022/12/28 09:18:00;;;;;;;4.80;2.60;;;6.20;95.80;;;;;;4129023;28;20182;-65
2022/12/28 09:20:01;;;;;;;2.67;1.67;;;6.00;96.00;;;;;;4129318;28;20452;-65
2022/12/28 09:22:01;;;;;;;2.67;2.20;;;5.80;97.70;;;;;;4129101;28;20197;-64
2022/12/28 09:24:02;;;;;;;2.60;1.40;;;5.70;97.90;;;;;;4131385;28;20627;-65
2022/12/28 09:26:10;;;;;;;1.80;1.37;;;5.60;98.70;;;;;;4135311;28;20562;-64
2022/12/28 09:28:11;;;;;;;2.70;1.80;;;5.60;98.40;;;;;;4130074;28;20162;-65
2022/12/28 09:30:12;;;;;;;4.77;3.03;;;5.60;98.70;;;;;;4113571;28;20795;-64
2022/12/28 09:32:13;;;;;;;4.23;2.30;;;5.40;98.90;;;;;;4129865;28;20468;-65
2022/12/28 09:34:14;;;;;;;7.93;4.63;;;5.20;99.90;;;;;;4112397;28;20179;-65
2022/12/28 09:36:15;;;;;;;5.20;2.63;;;5.10;99.90;;;;;;4129859;28;20646;-64
2022/12/28 09:38:16;;;;;;;3.40;2.63;;;5.00;99.90;;;;;;4128685;28;20189;-65
2022/12/28 09:40:16;;;;;;;6.80;3.73;;;4.80;99.90;;;;;;4129917;28;20409;-64
2022/12/28 09:42:25;;;;;;;3.87;2.70;;;4.60;99.90;;;;;;4112287;28;20194;-64
2022/12/28 09:44:41;;;;;;;5.70;3.17;;;4.50;99.90;;;;;;4112465;28;20283;-65
2022/12/28 09:46:48;;;;;;;5.00;3.17;;;4.60;99.90;;;;;;4129036;28;20917;-65
2022/12/28 09:48:54;;;;;;;5.53;3.40;;;4.60;99.90;;;;;;4129708;28;20448;-64
2022/12/28 09:50:55;;;;;;;6.47;4.03;;;4.30;99.90;;;;;;4112219;28;20490;-64
2022/12/28 09:53:28;;;;;;;4.97;3.00;;;4.30;99.90;;;;;;4112356;28;20430;-63
2022/12/28 09:55:31;;;;;;;4.10;3.10;;;4.40;99.90;;;;;;4115971;28;20654;-63
2022/12/28 09:57:38;;;;;;;5.47;3.40;;;4.30;99.90;;;;;;4095844;29;20424;-63
2022/12/28 09:59:39;;;;;;;5.40;3.37;;;4.50;99.90;;;;;;4096310;29;20443;-64
2022/12/28 10:01:42;;;;;;;5.63;3.30;;;4.50;99.90;;;;;;4113835;28;20430;-65
2022/12/28 10:03:45;;;;;;;5.23;3.70;;;4.70;99.90;;;;;;4096235;29;20882;-63
2022/12/28 10:05:45;;;;;;;5.33;3.77;;;4.80;99.90;;;;;;4113309;28;20437;-63
2022/12/28 10:07:46;;;;;;;6.43;3.60;;;4.70;99.90;;;;;;4095395;29;20957;-63
2022/12/28 10:09:47;;;;;;;5.90;3.83;;;4.90;99.90;;;;;;4096048;29;20214;-63
2022/12/28 10:11:48;;;;;;;6.67;3.90;;;5.00;99.90;;;;;;4113232;28;20214;-63
2022/12/28 10:13:55;;;;;;;6.33;4.13;;;4.90;99.90;;;;;;4113150;28;20430;-64
2022/12/28 10:15:56;;;;;;;7.07;4.50;;;4.90;99.90;;;;;;4113224;28;20174;-64
2022/12/28 10:17:57;;;;;;;7.57;4.13;;;4.60;99.90;;;;;;4112789;28;20438;-64
2022/12/28 10:19:58;;;;;;;6.70;4.27;;;4.50;99.90;;;;;;4113020;28;20443;-63
2022/12/28 10:22:06;;;;;;;5.97;4.20;;;4.30;99.90;;;;;;4112934;28;20195;-63
2022/12/28 10:24:07;;;;;;;6.27;3.93;;;4.20;99.90;;;;;;4111197;28;20185;-64
2022/12/28 10:26:15;;;;;;;6.90;4.17;;;4.30;99.90;;;;;;4111642;28;20506;-64
2022/12/28 10:28:19;;;;;;;6.30;4.20;;;4.10;99.90;;;;;;4111010;28;20658;-65
2022/12/28 10:30:26;;;;;;;5.23;3.93;;;4.00;99.90;;;;;;4111936;28;20964;-64
2022/12/28 10:32:51;;;;;;;6.10;3.80;;;4.10;99.90;;;;;;4129143;28;20507;-66
2022/12/28 10:35:00;;;;;;;5.87;4.20;;;4.20;99.90;;;;;;4131682;28;20483;-63
2022/12/28 10:37:15;;;;;;;5.60;3.70;;;4.20;99.90;;;;;;4131222;28;20424;-64
2022/12/28 10:39:23;;;;;;;7.07;3.70;;;4.20;99.90;;;;;;4114672;28;20442;-64
2022/12/28 10:41:35;;;;;;;4.60;3.10;;;4.20;99.90;;;;;;4131935;28;20911;-64
2022/12/28 10:43:41;;;;;;;5.27;4.10;;;4.40;99.90;;;;;;4132013;28;20490;-65
2022/12/28 10:45:48;;;;;;;4.47;3.40;;;4.40;99.90;;;;;;4132048;28;20436;-65
2022/12/28 10:47:53;;;;;;;5.03;3.37;;;4.50;99.90;;;;;;4113893;28;20441;-64
2022/12/28 10:49:53;;;;;;;4.83;3.47;;;4.80;99.90;;;;;;4114454;28;20457;-64
2022/12/28 10:52:06;;;;;;;6.27;4.00;;;5.20;99.90;;;;;;4098420;29;20572;-64
2022/12/28 10:54:24;;;;;;;4.60;3.40;;;5.10;99.90;;;;;;4098730;28;20250;-64
2022/12/28 10:56:30;;;;;;;6.33;3.70;;;5.00;99.90;;;;;;4131280;28;20437;-62
2022/12/28 10:58:32;;;;;;;4.70;3.20;;;5.10;99.90;;;;;;4114220;28;20509;-62
2022/12/28 11:00:33;;;;;;;4.10;2.87;;;5.30;99.90;;;;;;4114557;28;20422;-63
2022/12/28 11:02:33;;;;;;;5.07;2.90;;;5.50;99.90;;;;;;4131609;28;20448;-63
2022/12/28 11:04:34;;;;;;;5.17;3.43;;;5.70;99.90;;;;;;4114100;28;20225;-63
2022/12/28 11:06:56;;;;;;;5.50;3.10;;;5.90;99.90;;;;;;4131087;28;20186;-63
2022/12/28 11:09:06;;;;;;;4.10;2.83;;;5.80;99.90;;;;;;4114066;28;20230;-64
2022/12/28 11:11:16;;;;;;;5.73;3.67;;;6.10;99.90;;;;;;4131656;28;20457;-63
2022/12/28 11:13:19;;;;;;;5.83;3.40;;;6.30;98.90;;;;;;4131681;28;20472;-64
2022/12/28 11:15:27;;;;;;;4.53;3.27;;;6.50;98.90;;;;;;4114425;28;20481;-63
2022/12/28 11:17:33;;;;;;;4.97;3.37;;;6.40;98.60;;;;;;4131058;28;20197;-64
2022/12/28 11:19:34;;;;;;;4.60;3.03;;;6.30;99.10;;;;;;4114256;28;20473;-63